South Armidale Weather

South Armidale Weather


Today's Observations
Date Time Temperature Humidity Dewpoint Wind Speed High Gust Wind Bearing Rainfall Rate Total Rainfall Pressure Gust Wind Chill Heat Index UV Index
13/12/17 19:56 23.8 48 12.1 4.7 2.2 1 0.0 0.0 1014.0 2.2 24.6 23.8 0.0
13/12/17 19:55 23.8 47 11.8 4.7 2.2 1 0.0 0.0 1014.0 2.2 24.6 23.8 0.0
13/12/17 19:54 23.8 47 11.8 4.7 2.2 1 0.0 0.0 1014.0 2.2 24.6 23.8 0.0
13/12/17 19:53 23.9 47 11.9 4.7 2.2 1 0.0 0.0 1015.0 2.2 24.6 23.9 0.0
13/12/17 19:52 24.0 47 12.0 4.7 2.2 1 0.0 0.0 1015.0 2.2 24.6 24.0 0.0
13/12/17 19:51 24.0 46 11.7 4.7 2.2 1 0.0 0.0 1015.0 2.2 24.6 24.0 0.0
13/12/17 19:50 24.0 46 11.7 4.7 2.2 1 0.0 0.0 1015.0 2.2 24.6 24.0 0.0
13/12/17 19:49 24.1 45 11.4 4.7 2.2 1 0.0 0.0 1015.0 2.2 24.6 24.1 0.0
13/12/17 19:48 24.1 46 11.8 4.7 2.2 1 0.0 0.0 1015.0 2.2 24.6 24.1 0.0
13/12/17 19:47 24.2 45 11.5 4.7 2.2 1 0.0 0.0 1015.0 2.2 24.6 24.2 0.0
13/12/17 19:46 24.2 45 11.5 4.7 2.2 1 0.0 0.0 1015.0 2.2 24.6 24.2 0.0
13/12/17 19:45 24.3 45 11.6 4.7 2.2 1 0.0 0.0 1015.0 2.2 24.6 24.3 0.0
13/12/17 19:44 24.3 45 11.6 4.7 2.2 1 0.0 0.0 1015.0 2.2 24.6 24.3 0.0
13/12/17 19:43 24.4 44 11.4 4.7 2.2 1 0.0 0.0 1015.0 2.2 24.6 24.4 0.0
13/12/17 19:42 24.4 44 11.4 4.7 2.2 1 0.0 0.0 1015.0 2.2 24.6 24.4 0.0
13/12/17 19:41 24.4 44 11.4 4.7 2.2 1 0.0 0.0 1015.0 2.2 24.6 24.4 0.0
13/12/17 19:40 24.5 44 11.4 4.7 2.2 1 0.0 0.0 1015.0 2.2 24.6 24.5 0.0
13/12/17 19:39 24.5 44 11.4 4.7 2.2 1 0.0 0.0 1015.0 2.2 24.6 24.5 0.0
13/12/17 19:38 24.6 44 11.5 4.7 2.2 1 0.0 0.0 1015.0 2.2 24.6 24.6 0.0
13/12/17 19:37 24.6 44 11.5 4.7 2.2 1 0.0 0.0 1015.0 2.2 24.7 24.6 0.0
13/12/17 19:36 24.7 44 11.6 4.7 2.2 1 0.0 0.0 1015.0 2.2 24.7 24.7 0.0
13/12/17 19:35 24.7 44 11.6 4.7 2.2 1 0.0 0.0 1015.0 2.2 24.7 24.7 0.0
13/12/17 19:34 24.7 43 11.3 4.7 2.2 1 0.0 0.0 1015.0 2.2 24.8 24.7 0.0
13/12/17 19:33 24.8 43 11.4 4.7 3.2 7 0.0 0.0 1015.0 2.2 24.8 24.8 0.0
13/12/17 19:32 24.8 43 11.4 4.7 3.2 16 0.0 0.0 1015.0 2.2 24.9 24.8 0.0
13/12/17 19:31 24.9 43 11.5 4.7 3.2 42 0.0 0.0 1015.0 2.2 24.9 24.9 0.0
13/12/17 19:30 24.9 43 11.5 4.7 3.2 51 0.0 0.0 1015.0 2.2 24.9 24.9 0.0
13/12/17 19:29 24.9 42 11.1 4.7 4.0 36 0.0 0.0 1015.0 2.2 25.0 24.9 0.0
13/12/17 19:28 25.0 42 11.2 4.7 4.0 36 0.0 0.0 1015.0 2.2 25.0 25.0 0.0
13/12/17 19:27 25.0 42 11.2 4.7 4.0 36 0.0 0.0 1015.0 2.2 25.0 25.0 0.0
13/12/17 19:26 25.0 42 11.2 4.7 4.0 36 0.0 0.0 1015.0 2.2 25.1 25.0 0.0
13/12/17 19:25 25.1 42 11.3 4.7 4.0 32 0.0 0.0 1015.0 2.2 25.2 25.1 0.0
13/12/17 19:24 25.2 42 11.4 4.7 5.0 51 0.0 0.0 1015.0 2.2 25.2 25.2 0.0
13/12/17 19:23 25.2 41 11.0 3.6 5.0 104 0.0 0.0 1015.0 3.2 25.2 25.2 0.0
13/12/17 19:22 25.3 41 11.1 3.6 5.0 152 0.0 0.0 1015.0 3.2 25.3 25.3 0.0
13/12/17 19:21 25.3 41 11.1 3.6 5.0 161 0.0 0.0 1015.0 3.2 25.4 25.3 0.0
13/12/17 19:20 25.4 41 11.2 3.6 5.0 190 0.0 0.0 1015.0 3.2 25.4 25.4 0.0
13/12/17 19:19 25.4 40 10.8 2.5 5.0 181 0.0 0.0 1015.0 2.2 25.5 25.4 0.0
13/12/17 19:18 25.5 40 10.9 2.5 5.0 181 0.0 0.0 1015.0 2.2 25.5 25.5 0.0
13/12/17 19:17 25.5 40 10.9 2.5 5.0 181 0.0 0.0 1015.0 2.2 25.6 25.5 0.0
13/12/17 19:16 25.6 39 10.6 2.5 5.0 181 0.0 0.0 1015.0 2.2 25.7 25.6 0.0
13/12/17 19:15 25.7 38 10.3 2.5 5.0 181 0.0 0.0 1015.0 2.2 25.7 25.7 0.0
13/12/17 19:14 25.8 37 10.0 4.3 5.0 181 0.0 0.0 1015.0 5.0 25.8 25.8 0.0
13/12/17 19:13 25.8 37 10.0 4.3 5.0 181 0.0 0.0 1015.0 5.0 25.9 25.8 0.0
13/12/17 19:12 25.9 36 9.7 4.3 5.0 181 0.0 0.0 1015.0 5.0 26.0 25.9 0.0
13/12/17 19:11 26.0 35 9.3 4.3 5.0 181 0.0 0.0 1015.0 5.0 26.0 26.0 0.0
13/12/17 19:10 26.0 35 9.3 4.3 5.0 181 0.0 0.0 1015.0 5.0 26.0 26.0 0.0
13/12/17 19:09 26.0 34 8.9 4.3 5.0 181 0.0 0.0 1015.0 5.0 26.0 26.0 0.0
13/12/17 19:08 26.0 34 8.9 4.3 5.0 181 0.0 0.0 1015.0 5.0 26.1 26.0 0.0
13/12/17 19:07 26.1 34 9.0 4.3 5.0 181 0.0 0.0 1015.0 5.0 26.2 26.1 0.0
13/12/17 19:06 26.2 33 8.7 4.3 5.0 181 0.0 0.0 1015.0 5.0 26.3 26.2 0.0
13/12/17 19:05 26.2 33 8.7 4.3 5.0 181 0.0 0.0 1015.0 5.0 26.3 26.2 0.0
13/12/17 19:04 26.3 33 8.7 4.3 5.0 181 0.0 0.0 1015.0 5.0 26.3 26.3 0.0
13/12/17 19:03 26.3 33 8.7 4.3 5.0 181 0.0 0.0 1015.0 5.0 26.3 26.3 0.0
13/12/17 18:29 28.3 29 8.6 3.6 1.4 135 0.0 0.0 1014.0 1.4 28.5 27.3 0.0
13/12/17 18:28 28.4 29 8.6 3.6 1.4 135 0.0 0.0 1014.0 1.4 28.5 27.3 0.0
13/12/17 18:27 28.4 29 8.6 3.6 1.4 135 0.0 0.0 1014.0 1.4 28.5 27.3 0.0
13/12/17 18:26 28.4 28 8.1 3.6 1.4 135 0.0 0.0 1014.0 1.4 28.5 27.3 0.0
13/12/17 18:25 28.4 29 8.6 3.6 1.4 135 0.0 0.0 1014.0 1.4 28.5 27.3 0.0
13/12/17 18:24 28.4 29 8.6 3.6 1.4 135 0.0 0.0 1014.0 1.4 28.5 27.3 0.0
13/12/17 18:23 28.5 29 8.7 3.6 1.4 135 0.0 0.0 1014.0 1.4 28.5 27.4 0.0
13/12/17 18:22 28.5 28 8.2 3.6 1.4 135 0.0 0.0 1014.0 1.4 28.7 27.4 0.0
13/12/17 18:21 28.7 28 8.4 3.6 1.4 135 0.0 0.0 1014.0 1.4 28.7 27.5 0.0
13/12/17 18:20 28.7 29 8.9 3.6 1.4 135 0.0 0.0 1014.0 1.4 28.7 27.6 0.0
13/12/17 18:19 28.7 28 8.4 3.6 1.4 135 0.0 0.0 1014.0 1.4 28.7 27.5 0.0
13/12/17 18:18 28.7 28 8.4 3.6 1.4 135 0.0 0.0 1014.0 1.4 28.8 27.5 0.0
13/12/17 18:17 28.8 28 8.5 3.6 1.4 135 0.0 0.0 1014.0 1.4 28.8 27.6 0.0
13/12/17 18:16 28.8 28 8.5 3.6 1.4 135 0.0 0.0 1014.0 1.4 28.9 27.6 0.0
13/12/17 18:15 28.9 28 8.6 3.6 1.4 135 0.0 0.0 1014.0 1.4 28.9 27.7 0.0
13/12/17 18:14 28.9 28 8.6 3.6 1.4 135 0.0 0.0 1014.0 1.4 28.9 27.7 0.0
13/12/17 18:13 28.9 28 8.6 3.6 1.4 135 0.0 0.0 1014.0 1.4 28.9 27.7 0.0
13/12/17 18:12 28.9 28 8.6 3.6 1.4 135 0.0 0.0 1014.0 1.4 29.0 27.7 0.0
13/12/17 18:11 29.0 27 8.1 3.6 1.4 135 0.0 0.0 1014.0 1.4 29.1 27.7 0.0
13/12/17 18:10 29.1 27 8.2 3.6 1.4 135 0.0 0.0 1014.0 1.4 29.2 27.8 0.0
13/12/17 18:09 29.2 27 8.3 0.0 0.0 0 0.0 0.0 1014.0 0.0 29.3 27.9 0.0
13/12/17 18:08 29.3 27 8.4 0.0 0.0 0 0.0 0.0 1014.0 0.0 29.3 28.0 0.0
13/12/17 18:07 29.3 27 8.4 0.0 0.0 0 0.0 0.0 1014.0 0.0 29.3 28.0 0.0
13/12/17 18:06 29.3 27 8.4 0.0 0.0 0 0.0 0.0 1014.0 0.0 29.3 28.0 0.0
13/12/17 18:05 29.3 27 8.4 0.0 0.0 0 0.0 0.0 1014.0 0.0 29.3 28.0 0.0
13/12/17 18:04 29.3 26 7.8 0.0 0.0 0 0.0 0.0 1014.0 0.0 29.4 27.9 0.0
13/12/17 18:03 29.4 26 7.9 0.0 0.0 0 0.0 0.0 1014.0 0.0 29.3 28.0 0.0
13/12/17 17:34 29.3 23 6.0 2.2 0.0 0 0.0 0.0 1014.0 0.0 29.2 27.8 0.0
13/12/17 17:33 29.2 23 5.9 2.2 0.0 0 0.0 0.0 1014.0 0.0 29.2 27.7 0.0
13/12/17 17:32 29.2 23 5.9 2.2 0.0 0 0.0 0.0 1014.0 0.0 29.2 27.7 0.0
13/12/17 17:31 29.2 24 6.6 2.2 0.0 0 0.0 0.0 1014.0 0.0 29.2 27.7 0.0
13/12/17 17:30 29.2 24 6.6 2.2 0.0 0 0.0 0.0 1014.0 0.0 29.1 27.7 0.0
13/12/17 17:29 29.0 23 5.8 2.2 0.0 0 0.0 0.0 1014.0 0.0 29.0 27.6 0.0
13/12/17 17:28 29.0 24 6.4 2.2 0.0 0 0.0 0.0 1014.0 0.0 29.1 27.6 0.0
13/12/17 17:27 29.1 23 5.8 2.2 0.0 0 0.0 0.0 1014.0 0.0 29.1 27.6 0.0
13/12/17 17:26 29.1 23 5.8 2.2 0.0 0 0.0 0.0 1014.0 0.0 29.1 27.6 0.0
13/12/17 17:25 29.1 23 5.8 2.2 0.0 0 0.0 0.0 1014.0 0.0 29.1 27.6 0.0
13/12/17 17:24 29.1 23 5.8 2.2 0.0 0 0.0 0.0 1014.0 0.0 29.1 27.6 0.0
13/12/17 17:23 29.1 23 5.8 2.2 0.0 0 0.0 0.0 1014.0 0.0 29.2 27.6 0.0
13/12/17 17:22 29.2 23 5.9 2.2 0.0 0 0.0 0.0 1014.0 0.0 29.3 27.7 0.0
13/12/17 17:21 29.5 23 6.2 2.2 0.0 0 0.0 0.0 1014.0 0.0 29.5 27.9 0.0
13/12/17 17:20 29.5 23 6.2 0.0 0.0 0 0.0 0.0 1014.0 0.0 29.8 27.9 0.0
13/12/17 17:19 29.8 23 6.4 0.0 0.0 0 0.0 0.0 1014.0 0.0 29.9 28.2 0.0
13/12/17 17:18 29.8 23 6.4 0.0 0.0 0 0.0 0.0 1014.0 0.0 29.9 28.2 0.0
13/12/17 17:17 29.9 23 6.5 0.0 0.0 0 0.0 0.0 1014.0 0.0 30.0 28.3 0.0
13/12/17 17:16 30.0 22 6.0 0.0 0.0 0 0.0 0.0 1014.0 0.0 30.1 28.3 0.0
13/12/17 17:15 30.1 22 6.0 0.0 2.5 135 0.0 0.0 1014.0 0.0 30.1 28.4 0.0
13/12/17 17:14 30.1 22 6.0 0.0 2.5 135 0.0 0.0 1014.0 0.0 30.0 28.4 0.0
13/12/17 17:13 30.0 22 6.0 0.0 2.5 135 0.0 0.0 1014.0 0.0 30.0 28.3 0.0
13/12/17 17:12 30.0 22 6.0 0.0 2.5 135 0.0 0.0 1014.0 0.0 30.0 28.3 0.0
13/12/17 17:11 30.0 22 6.0 0.0 2.5 135 0.0 0.0 1014.0 0.0 30.0 28.3 0.0
13/12/17 17:10 30.0 22 6.0 2.5 2.5 135 0.0 0.0 1014.0 0.0 30.0 28.3 0.0
13/12/17 17:09 30.0 22 6.0 2.5 2.5 135 0.0 0.0 1014.0 0.0 30.0 28.3 0.0
13/12/17 17:08 30.0 22 6.0 2.5 2.5 135 0.0 0.0 1014.0 0.0 30.0 28.3 0.0
13/12/17 17:07 30.0 22 6.0 2.5 2.5 135 0.0 0.0 1014.0 0.0 29.9 28.3 0.0
13/12/17 17:06 29.9 22 5.9 2.5 2.5 135 0.0 0.0 1014.0 0.0 29.9 28.2 0.0
13/12/17 17:05 29.9 22 5.9 1.8 3.2 135 0.0 0.0 1014.0 2.5 30.1 28.2 0.0
13/12/17 17:04 30.1 21 5.4 1.8 3.2 135 0.0 0.0 1014.0 2.5 30.2 28.4 0.0
13/12/17 17:03 30.2 22 6.1 1.8 3.6 135 0.0 0.0 1014.0 2.5 30.3 28.5 0.0
13/12/17 17:00 30.5 22 6.4 1.8 3.6 135 0.0 0.0 1014.0 2.5 30.6 28.7 0.0
13/12/17 16:59 30.6 21 5.8 1.8 3.6 135 0.0 0.0 1014.0 2.5 30.7 28.8 0.0
13/12/17 16:58 30.9 21 6.0 1.8 3.6 135 0.0 0.0 1014.0 2.5 30.9 29.0 0.0
13/12/17 16:57 31.1 21 6.2 2.2 3.6 135 0.0 0.0 1014.0 2.5 31.2 29.2 0.0
13/12/17 16:56 31.2 21 6.3 2.2 3.6 135 0.0 0.0 1014.0 2.5 31.2 29.3 0.0
13/12/17 16:55 31.1 21 6.2 1.4 3.6 135 0.0 0.0 1014.0 3.2 31.1 29.2 0.0
13/12/17 16:54 30.9 21 6.0 0.0 3.6 135 0.0 0.0 1014.0 0.0 30.9 29.0 0.0
13/12/17 16:53 30.8 21 5.9 1.4 3.6 135 0.0 0.0 1014.0 3.6 30.6 28.9 0.0
13/12/17 16:52 30.6 21 5.8 1.4 3.6 135 0.0 0.0 1014.0 3.6 30.6 28.8 0.0
13/12/17 16:51 30.6 21 5.8 2.2 3.6 135 0.0 0.0 1014.0 2.2 30.6 28.8 0.0
13/12/17 16:50 30.6 21 5.8 2.2 3.6 135 0.0 0.0 1014.0 2.2 30.6 28.8 0.0
13/12/17 16:49 30.6 21 5.8 2.2 3.6 135 0.0 0.0 1014.0 3.6 30.6 28.8 0.0
13/12/17 16:48 30.7 21 5.9 2.2 0.0 0 0.0 0.0 1014.0 0.0 30.6 28.9 0.0
13/12/17 16:47 30.6 20 5.1 2.5 0.0 0 0.0 0.0 1014.0 0.0 30.9 28.7 0.0
13/12/17 16:46 30.7 20 5.2 2.5 0.0 0 0.0 0.0 1014.0 0.0 30.9 28.8 0.0
13/12/17 16:45 30.7 21 5.9 2.5 0.0 0 0.0 0.0 1014.0 0.0 30.9 28.9 0.0
13/12/17 16:44 30.8 20 5.2 2.5 0.0 0 0.0 0.0 1014.0 0.0 30.9 28.9 0.0
13/12/17 16:43 30.9 20 5.3 2.5 0.0 0 0.0 0.0 1014.0 0.0 31.0 29.0 0.0
13/12/17 16:42 31.0 20 5.4 2.5 0.0 0 0.0 0.0 1014.0 0.0 31.0 29.1 0.0
13/12/17 16:41 31.0 19 4.7 2.5 0.0 0 0.0 0.0 1014.0 0.0 31.2 29.0 0.0
13/12/17 16:40 31.2 19 4.8 2.5 0.0 0 0.0 0.0 1014.0 0.0 31.3 29.2 0.0
13/12/17 16:39 31.3 19 4.9 2.5 5.4 135 0.0 0.0 1014.0 0.0 31.5 29.3 0.0
13/12/17 16:38 31.5 20 5.8 2.5 5.4 135 0.0 0.0 1014.0 0.0 31.6 29.5 0.0
13/12/17 16:37 31.6 20 5.9 2.5 5.4 135 0.0 0.0 1014.0 0.0 31.6 29.6 0.0
13/12/17 16:36 31.8 19 5.3 2.5 5.4 111 0.0 0.0 1014.0 0.0 32.0 29.7 0.0
13/12/17 16:35 32.0 19 5.5 2.5 5.4 107 0.0 0.0 1014.0 0.0 32.2 29.9 0.0
13/12/17 16:34 32.2 19 5.6 2.5 5.4 104 0.0 0.0 1014.0 0.0 32.2 30.1 0.0
13/12/17 16:33 32.2 19 5.6 2.5 5.4 100 0.0 0.0 1014.0 0.0 32.3 30.1 0.0
13/12/17 16:32 32.3 19 5.7 2.5 5.4 85 0.0 0.0 1014.0 0.0 32.4 30.2 0.0
13/12/17 16:31 32.4 18 5.0 2.5 5.4 75 0.0 0.0 1014.0 0.0 32.5 30.3 0.0
13/12/17 16:30 32.5 18 5.1 2.5 5.4 67 0.0 0.0 1014.0 0.0 32.5 30.3 0.0
13/12/17 16:29 32.5 18 5.1 2.2 5.4 72 0.0 0.0 1014.0 5.4 32.7 30.3 0.0
13/12/17 16:28 32.9 18 5.4 2.2 5.4 80 0.0 0.0 1014.0 5.4 33.2 30.7 0.0
13/12/17 16:27 33.2 18 5.7 2.2 6.1 87 0.0 0.0 1014.0 5.4 33.2 31.0 0.0
13/12/17 16:26 33.2 18 5.7 2.2 6.1 90 0.0 0.0 1014.0 2.5 33.2 31.0 0.0
13/12/17 16:25 33.5 18 5.9 3.2 6.1 100 0.0 0.0 1014.0 1.8 33.6 31.3 0.0
13/12/17 16:24 33.6 18 6.0 3.2 6.5 108 0.0 0.0 1014.0 1.8 33.7 31.4 0.0
13/12/17 16:23 33.7 18 6.1 3.2 6.5 112 0.0 0.0 1014.0 1.8 33.9 31.5 0.0
13/12/17 16:22 33.9 17 5.4 3.2 6.5 116 0.0 0.0 1014.0 4.7 34.3 31.6 0.0
13/12/17 16:21 34.6 17 6.0 3.6 6.5 127 0.0 0.0 1014.0 5.4 34.6 32.3 0.0
13/12/17 16:20 35.0 17 6.3 3.6 6.5 136 0.0 0.0 1014.0 1.8 35.0 32.7 0.0
13/12/17 16:19 35.2 17 6.5 3.6 7.9 139 0.0 0.0 1014.0 4.7 35.5 32.9 0.0
13/12/17 16:18 35.5 17 6.7 3.6 7.9 139 0.0 0.0 1014.0 4.7 35.5 33.3 0.0
13/12/17 16:17 35.5 16 5.8 4.0 7.9 151 0.0 0.0 1014.0 4.7 35.5 33.2 0.0
13/12/17 16:16 35.8 17 6.9 2.5 7.9 303 0.0 0.0 1014.0 0.0 35.8 33.6 0.0
13/12/17 16:15 35.9 17 7.0 3.6 7.9 311 0.0 0.0 1014.0 1.8 35.9 33.7 0.0
13/12/17 16:14 36.1 17 7.2 3.2 7.9 312 0.0 0.0 1014.0 3.6 36.1 33.9 0.0
13/12/17 16:13 35.9 17 7.0 2.5 7.9 313 0.0 0.0 1014.0 1.4 35.9 33.7 0.0
13/12/17 16:12 36.3 17 7.4 4.0 7.9 313 0.0 0.0 1014.0 4.7 36.3 34.1 0.0
13/12/17 16:11 36.3 17 7.4 3.2 7.9 313 0.0 0.0 1014.0 4.0 36.3 34.1 0.0
13/12/17 16:10 36.4 16 6.5 4.0 7.9 313 0.0 0.0 1014.0 0.0 36.4 34.1 0.0
13/12/17 16:09 36.6 17 7.6 3.2 6.5 312 0.0 0.0 1014.0 5.0 36.6 34.5 0.0
13/12/17 16:08 36.9 17 7.8 2.5 6.5 312 0.0 0.0 1014.0 3.2 36.9 34.8 0.0
13/12/17 16:07 37.0 16 7.0 3.6 6.5 309 0.0 0.0 1014.0 3.2 37.3 34.8 0.0
13/12/17 16:06 37.3 16 7.3 2.5 6.5 295 0.0 0.0 1014.0 2.5 37.4 35.1 0.0
13/12/17 16:05 37.3 16 7.3 2.2 6.5 314 0.0 0.0 1014.0 4.3 37.3 35.1 0.0
13/12/17 16:04 37.1 16 7.1 2.2 6.5 314 0.0 0.0 1014.0 1.8 37.1 34.9 0.0
13/12/17 16:03 36.9 17 7.8 2.5 6.5 135 0.0 0.0 1014.0 6.5 36.9 34.8 0.0
13/12/17 16:02 36.9 17 7.8 2.5 4.3 131 0.0 0.0 1014.0 1.8 36.9 34.8 0.0
13/12/17 15:52 38.4 17 9.0 1.8 3.6 1 0.0 0.0 1014.0 1.4 38.4 36.5 0.0
13/12/17 15:51 38.2 17 8.9 0.0 3.6 1 0.0 0.0 1014.0 1.4 37.9 36.3 0.0
13/12/17 15:50 38.1 17 8.8 0.0 4.0 13 0.0 0.0 1014.0 0.0 38.1 36.2 0.0
13/12/17 15:49 38.1 17 8.8 1.4 7.6 64 0.0 0.0 1014.0 0.0 38.1 36.2 0.0
13/12/17 15:48 38.0 17 8.7 0.0 7.6 88 0.0 0.0 1014.0 0.0 38.0 36.1 0.0
13/12/17 15:47 37.8 18 9.4 1.4 7.6 97 0.0 0.0 1014.0 1.8 37.8 36.0 0.0
13/12/17 15:46 37.7 18 9.3 0.0 7.6 121 0.0 0.0 1014.0 1.8 37.7 35.9 0.0
13/12/17 15:45 37.4 18 9.1 0.0 7.6 126 0.0 0.0 1014.0 0.0 37.4 35.5 0.0
13/12/17 15:44 37.0 18 8.8 0.0 7.6 127 0.0 0.0 1014.0 0.0 37.0 35.1 0.0
13/12/17 15:43 36.5 18 8.4 1.8 7.6 129 0.0 0.0 1014.0 1.4 36.5 34.5 0.0
13/12/17 15:42 36.1 18 8.0 0.0 7.6 134 0.0 0.0 1014.0 2.2 36.1 34.0 0.0
13/12/17 15:41 35.8 18 7.8 1.8 7.6 135 0.0 0.0 1014.0 0.0 35.8 33.7 0.0
13/12/17 15:40 36.5 18 8.4 5.4 7.6 135 0.0 0.0 1014.0 4.0 36.5 34.5 0.0
13/12/17 15:39 36.6 19 9.2 1.4 5.0 135 0.0 0.0 1014.0 3.2 36.6 34.7 0.0
13/12/17 15:38 36.2 19 8.9 1.4 5.0 135 0.0 0.0 1015.0 1.8 36.2 34.3 0.0
13/12/17 15:37 36.2 18 8.1 4.0 5.0 135 0.0 0.0 1015.0 2.2 36.2 34.1 0.0
13/12/17 15:36 36.6 19 9.2 1.4 4.7 135 0.0 0.0 1015.0 2.2 36.5 34.7 0.0
13/12/17 15:35 36.2 19 8.9 1.4 4.7 135 0.0 0.0 1015.0 0.0 36.2 34.3 0.0
13/12/17 15:34 36.0 19 8.7 1.4 6.5 135 0.0 0.0 1015.0 1.8 36.0 34.0 0.0
13/12/17 15:33 35.7 20 9.3 0.0 6.5 135 0.0 0.0 1015.0 0.0 35.7 33.8 0.0
13/12/17 15:32 35.2 19 8.1 1.4 6.5 135 0.0 0.0 1015.0 0.0 35.2 33.2 0.0
13/12/17 15:31 35.0 20 8.7 2.2 6.8 135 0.0 0.0 1015.0 1.8 35.0 33.0 0.0
13/12/17 15:30 34.9 19 7.9 2.5 6.8 129 0.0 0.0 1015.0 4.7 34.9 32.8 0.0
13/12/17 15:29 34.8 20 8.5 2.2 6.8 129 0.0 0.0 1015.0 1.4 34.6 32.8 0.0
13/12/17 15:28 34.5 20 8.3 3.2 6.8 127 0.0 0.0 1015.0 2.5 34.5 32.5 0.0
13/12/17 15:27 34.7 19 7.7 3.2 6.8 127 0.0 0.0 1015.0 2.5 34.7 32.6 0.0
13/12/17 15:26 34.9 19 7.9 4.0 6.8 126 0.0 0.0 1015.0 4.0 34.9 32.8 0.0
13/12/17 15:25 35.0 20 8.7 4.0 6.8 123 0.0 0.0 1015.0 4.3 35.0 33.0 0.0
13/12/17 15:24 34.9 20 8.6 2.5 6.8 117 0.0 0.0 1015.0 4.0 34.9 32.9 0.0
13/12/17 15:23 34.8 20 8.5 2.5 6.8 116 0.0 0.0 1015.0 2.5 34.8 32.8 0.0
13/12/17 15:22 34.7 20 8.4 5.8 6.8 126 0.0 0.0 1015.0 2.5 34.9 32.7 0.0
13/12/17 15:21 34.9 20 8.6 5.8 6.5 293 0.0 0.0 1015.0 6.5 35.2 32.9 0.0
13/12/17 15:20 35.3 20 8.9 1.8 4.0 274 0.0 0.0 1015.0 2.5 35.3 33.4 0.0
13/12/17 15:19 35.3 21 9.7 1.8 4.0 263 0.0 0.0 1015.0 4.0 35.3 33.5 0.0
13/12/17 15:18 35.2 21 9.6 0.0 4.0 258 0.0 0.0 1015.0 0.0 35.2 33.4 0.0
13/12/17 15:17 34.9 21 9.3 0.0 4.0 258 0.0 0.0 1015.0 0.0 34.9 33.1 0.0
13/12/17 15:16 34.7 21 9.2 0.0 4.0 268 0.0 0.0 1015.0 0.0 34.7 32.8 0.0
13/12/17 15:15 34.5 21 9.0 0.0 4.0 263 0.0 0.0 1015.0 0.0 34.5 32.6 0.0
13/12/17 15:14 34.2 21 8.8 2.5 4.0 266 0.0 0.0 1015.0 1.4 34.1 32.3 0.0
13/12/17 15:13 34.1 21 8.7 0.0 4.0 254 0.0 0.0 1015.0 4.0 33.9 32.2 0.0
13/12/17 15:12 33.5 21 8.2 0.0 4.0 283 0.0 0.0 1015.0 0.0 33.5 31.5 0.0
13/12/17 15:11 32.3 22 7.9 2.5 4.0 295 0.0 0.0 1015.0 0.0 32.3 30.4 0.0
13/12/17 15:10 32.3 22 7.9 0.0 4.0 297 0.0 0.0 1015.0 3.2 32.3 30.4 0.0
13/12/17 15:09 32.3 22 7.9 1.8 4.0 303 0.0 0.0 1015.0 1.8 31.9 30.4 0.0
13/12/17 15:08 31.9 22 7.5 0.0 4.0 299 0.0 0.0 1015.0 1.4 31.5 30.0 0.0
13/12/17 15:07 31.5 22 7.2 0.0 4.0 314 0.0 0.0 1015.0 4.0 31.5 29.6 0.0
13/12/17 15:06 31.5 22 7.2 0.0 1.8 314 0.0 0.0 1015.0 0.0 31.2 29.6 0.0
13/12/17 15:05 31.0 22 6.8 0.0 1.8 314 0.0 0.0 1015.0 0.0 31.0 29.2 0.0
13/12/17 15:04 31.0 22 6.8 0.0 1.8 314 0.0 0.0 1015.0 1.8 31.0 29.2 0.0
13/12/17 15:03 31.2 21 6.3 1.8 1.8 314 0.0 0.0 1015.0 0.0 31.2 29.3 0.0
13/12/17 14:25 34.1 19 7.2 4.0 6.1 132 0.0 0.0 1015.0 2.2 34.1 32.0 0.0
13/12/17 14:24 34.0 18 6.3 2.2 6.1 134 0.0 0.0 1015.0 2.5 34.0 31.8 0.0
13/12/17 14:23 33.9 19 7.0 4.0 6.1 135 0.0 0.0 1014.0 1.8 33.9 31.8 0.0
13/12/17 14:22 34.1 19 7.2 1.8 5.0 132 0.0 0.0 1014.0 5.0 34.1 32.0 0.0
13/12/17 14:21 34.0 19 7.1 2.2 4.7 128 0.0 0.0 1014.0 0.0 34.0 31.9 0.0
13/12/17 14:20 33.7 19 6.9 3.6 4.7 121 0.0 0.0 1014.0 4.0 33.8 31.6 0.0
13/12/17 14:19 33.7 20 7.6 1.8 4.7 113 0.0 0.0 1014.0 1.8 33.7 31.6 0.0
13/12/17 14:18 33.5 20 7.5 1.8 4.7 111 0.0 0.0 1014.0 0.0 33.5 31.4 0.0
13/12/17 14:17 33.3 19 6.5 3.2 4.7 105 0.0 0.0 1014.0 2.2 33.3 31.2 0.0
13/12/17 14:16 33.1 19 6.4 2.2 4.7 88 0.0 0.0 1014.0 4.0 33.1 31.0 0.0
13/12/17 14:15 32.9 20 7.0 2.2 4.7 30 0.0 0.0 1014.0 3.2 32.9 30.8 0.0
13/12/17 14:14 32.6 19 6.0 1.4 4.7 350 0.0 0.0 1014.0 4.7 32.6 30.5 0.0
13/12/17 14:13 32.5 19 5.9 1.8 4.3 342 0.0 0.0 1014.0 0.0 32.5 30.4 0.0
13/12/17 14:12 33.0 18 5.5 1.4 4.3 346 0.0 0.0 1014.0 3.2 33.0 30.8 0.0
13/12/17 14:11 33.4 18 5.8 2.2 4.3 345 0.0 0.0 1014.0 1.8 33.4 31.2 0.0
13/12/17 14:10 34.1 18 6.4 4.7 4.3 234 0.0 0.0 1014.0 4.3 34.1 31.9 0.0
13/12/17 14:09 34.5 18 6.7 0.0 4.0 204 0.0 0.0 1014.0 0.0 34.8 32.3 0.0
13/12/17 14:08 34.8 18 7.0 0.0 4.0 204 0.0 0.0 1014.0 0.0 34.8 32.6 0.0
13/12/17 14:07 34.9 19 7.9 1.8 4.0 204 0.0 0.0 1014.0 0.0 34.9 32.8 0.0
13/12/17 14:06 35.1 18 7.2 0.0 4.0 190 0.0 0.0 1014.0 1.4 35.1 32.9 0.0
13/12/17 14:05 35.0 18 7.1 2.2 4.0 165 0.0 0.0 1014.0 3.2 34.7 32.8 0.0
13/12/17 14:04 34.4 18 6.7 0.0 4.0 135 0.0 0.0 1014.0 0.0 34.4 32.2 0.0
13/12/17 14:03 34.5 18 6.7 2.5 4.0 135 0.0 0.0 1014.0 1.8 34.5 32.3 0.0
13/12/17 13:14 35.6 18 7.6 2.2 5.0 260 0.0 0.0 1016.0 2.2 35.6 33.5 0.0
13/12/17 13:13 35.6 18 7.6 0.0 3.6 268 0.0 0.0 1016.0 0.0 35.6 33.5 0.0
13/12/17 13:12 35.4 18 7.5 1.8 4.3 270 0.0 0.0 1016.0 1.8 35.3 33.3 0.0
13/12/17 13:11 35.2 18 7.3 1.4 4.3 273 0.0 0.0 1016.0 2.2 35.2 33.0 0.0
13/12/17 13:10 35.3 19 8.2 2.2 4.3 273 0.0 0.0 1016.0 1.4 35.3 33.3 0.0
13/12/17 13:09 35.3 18 7.4 0.0 4.3 273 0.0 0.0 1016.0 1.4 35.3 33.1 0.0
13/12/17 13:08 35.2 19 8.1 1.8 4.3 271 0.0 0.0 1016.0 1.4 35.2 33.2 0.0
13/12/17 13:07 35.0 20 8.7 1.4 4.3 270 0.0 0.0 1016.0 2.5 35.0 33.0 0.0
13/12/17 13:06 35.0 18 7.1 0.0 4.3 270 0.0 0.0 1016.0 2.5 35.0 32.8 0.0
13/12/17 13:05 34.9 18 7.1 1.8 4.3 270 0.0 0.0 1016.0 1.8 34.9 32.7 0.0
13/12/17 13:04 35.2 18 7.3 2.2 4.3 270 0.0 0.0 1016.0 1.4 35.2 33.0 0.0
13/12/17 13:03 35.8 19 8.6 3.2 4.3 270 0.0 0.0 1016.0 2.5 35.8 33.8 0.0
13/12/17 12:18 35.7 21 10.0 0.0 2.2 314 0.0 0.0 1017.0 0.0 35.7 34.0 0.0
13/12/17 12:17 35.7 22 10.7 0.0 3.6 314 0.0 0.0 1017.0 1.8 35.7 34.1 0.0
13/12/17 12:16 35.6 21 9.9 0.0 3.6 314 0.0 0.0 1017.0 0.0 35.6 33.9 0.0
13/12/17 12:15 35.5 22 10.5 0.0 3.6 314 0.0 0.0 1017.0 0.0 35.5 33.9 0.0
13/12/17 12:14 35.3 22 10.4 1.4 3.6 314 0.0 0.0 1017.0 0.0 35.3 33.7 0.0
13/12/17 12:13 35.2 22 10.3 0.0 3.6 311 0.0 0.0 1017.0 0.0 35.1 33.5 0.0
13/12/17 12:12 35.1 22 10.2 1.4 5.4 309 0.0 0.0 1017.0 2.2 34.6 33.4 0.0
13/12/17 12:11 34.6 22 9.8 1.4 5.4 305 0.0 0.0 1017.0 1.8 34.6 32.8 0.0
13/12/17 12:10 34.4 23 10.3 0.0 5.4 304 0.0 0.0 1017.0 1.4 34.4 32.7 0.0
13/12/17 12:09 34.5 22 9.7 1.8 5.4 302 0.0 0.0 1017.0 2.2 34.5 32.7 0.0
13/12/17 12:08 34.8 21 9.2 1.8 5.4 300 0.0 0.0 1017.0 2.2 34.8 32.9 0.0
13/12/17 12:07 34.8 21 9.2 1.4 5.4 295 0.0 0.0 1017.0 2.2 34.8 32.9 0.0
13/12/17 12:06 34.6 22 9.8 0.0 5.4 288 0.0 0.0 1017.0 2.2 34.6 32.8 0.0
13/12/17 12:05 34.3 22 9.5 1.4 5.4 283 0.0 0.0 1017.0 0.0 34.3 32.5 0.0
13/12/17 12:04 34.0 22 9.3 1.8 5.4 270 0.0 0.0 1017.0 1.8 33.8 32.2 0.0
13/12/17 12:03 34.5 20 8.3 3.2 5.4 224 0.0 0.0 1017.0 3.2 34.5 32.5 0.0
13/12/17 11:11 31.5 24 8.5 1.4 6.1 115 0.0 0.0 1016.0 1.4 31.4 29.7 0.0
13/12/17 11:10 31.8 23 8.1 4.0 6.1 112 0.0 0.0 1016.0 4.0 31.8 30.0 0.0
13/12/17 11:09 31.8 23 8.1 4.3 6.1 106 0.0 0.0 1016.0 4.7 31.8 30.0 0.0
13/12/17 11:08 31.7 24 8.6 4.3 6.1 95 0.0 0.0 1018.0 5.0 31.7 29.9 0.0
13/12/17 11:07 31.6 24 8.6 2.5 6.1 89 0.0 0.0 1018.0 4.7 31.6 29.8 0.0
13/12/17 11:06 31.5 23 7.9 4.0 6.1 109 0.0 0.0 1018.0 4.0 31.5 29.7 0.0
13/12/17 11:05 31.4 23 7.8 4.3 6.1 128 0.0 0.0 1018.0 6.1 31.4 29.6 0.0
13/12/17 11:04 31.3 23 7.7 4.3 5.8 135 0.0 0.0 1018.0 4.3 31.3 29.5 0.0
13/12/17 11:03 31.6 23 7.9 4.3 5.8 135 0.0 0.0 1018.0 5.8 31.6 29.8 0.0
13/12/17 11:02 32.0 23 8.3 3.6 4.7 135 0.0 0.0 1018.0 4.3 32.0 30.2 0.0
13/12/17 10:17 31.0 25 8.7 4.7 6.8 135 0.0 0.0 1017.0 4.7 31.0 29.3 0.0
13/12/17 10:16 30.9 24 8.0 1.8 6.8 135 0.0 0.0 1017.0 3.2 30.9 29.2 0.0
13/12/17 10:15 30.8 25 8.5 2.2 6.8 135 0.0 0.0 1017.0 2.5 30.8 29.2 0.0
13/12/17 10:14 30.6 25 8.3 2.2 6.8 135 0.0 0.0 1017.0 1.4 30.6 29.0 0.0
13/12/17 10:13 30.4 25 8.2 2.5 6.8 135 0.0 0.0 1017.0 3.2 30.4 28.8 0.0
13/12/17 10:12 30.6 24 7.7 4.0 6.8 135 0.0 0.0 1017.0 4.0 30.6 28.9 0.0
13/12/17 10:11 30.8 26 9.1 2.5 6.8 135 0.0 0.0 1017.0 2.5 30.8 29.2 0.0
13/12/17 10:10 30.9 24 8.0 3.2 6.8 135 0.0 0.0 1017.0 6.8 30.9 29.2 0.0
13/12/17 10:09 31.0 24 8.1 3.6 5.0 135 0.0 0.0 1017.0 2.2 31.0 29.3 0.0
13/12/17 10:08 31.2 24 8.2 3.2 5.0 133 0.0 0.0 1017.0 2.5 31.2 29.5 0.0
13/12/17 10:07 31.5 25 9.1 2.5 5.0 125 0.0 0.0 1017.0 3.2 31.5 29.8 0.0
13/12/17 10:06 31.5 25 9.1 0.0 2.2 68 0.0 0.0 1017.0 0.0 31.5 29.8 0.0
13/12/17 10:05 31.3 25 8.9 0.0 3.6 59 0.0 0.0 1017.0 0.0 31.3 29.6 0.0
13/12/17 10:04 31.2 23 7.6 0.0 3.6 56 0.0 0.0 1017.0 0.0 31.2 29.4 0.0
13/12/17 10:03 31.2 25 8.8 0.0 3.6 56 0.0 0.0 1017.0 0.0 31.1 29.5 0.0
13/12/17 10:02 30.8 27 9.6 0.0 3.6 56 0.0 0.0 1017.0 0.0 30.8 29.3 0.0
13/12/17 10:00 30.3 25 8.1 0.0 4.3 81 0.0 0.0 1017.0 0.0 30.3 28.7 0.0
13/12/17 09:59 30.2 25 8.0 1.8 4.3 81 0.0 0.0 1017.0 0.0 30.2 28.6 0.0
13/12/17 09:58 30.2 25 8.0 2.2 4.3 76 0.0 0.0 1017.0 1.4 30.2 28.6 0.0
13/12/17 09:57 30.5 25 8.2 2.2 4.3 68 0.0 0.0 1017.0 2.2 30.5 28.9 0.0
13/12/17 09:56 30.5 25 8.2 3.2 4.3 60 0.0 0.0 1017.0 1.8 30.8 28.9 0.0
13/12/17 09:55 30.8 27 9.6 2.5 4.3 45 0.0 0.0 1017.0 3.6 30.8 29.3 0.0
13/12/17 09:54 30.7 25 8.4 1.4 4.3 45 0.0 0.0 1017.0 2.2 30.7 29.1 0.0
13/12/17 09:53 30.9 26 9.2 0.0 4.3 46 0.0 0.0 1016.0 0.0 30.9 29.3 0.0
13/12/17 09:52 30.9 27 9.7 2.2 4.3 46 0.0 0.0 1016.0 0.0 30.9 29.4 0.0
13/12/17 09:51 30.9 27 9.7 1.8 4.3 46 0.0 0.0 1016.0 4.3 30.9 29.4 0.0
13/12/17 09:50 30.9 27 9.7 0.0 1.8 45 0.0 0.0 1016.0 0.0 30.9 29.4 0.0
13/12/17 09:49 30.9 27 9.7 0.0 2.2 45 0.0 0.0 1016.0 0.0 30.9 29.4 0.0
13/12/17 09:48 30.9 28 10.3 0.0 2.2 45 0.0 0.0 1016.0 0.0 30.7 29.5 0.0
13/12/17 09:47 30.6 26 8.9 0.0 3.2 46 0.0 0.0 1016.0 1.8 30.6 29.0 0.0
13/12/17 09:46 30.6 28 10.0 0.0 3.2 45 0.0 0.0 1016.0 0.0 30.6 29.2 0.0
13/12/17 09:45 30.4 26 8.7 0.0 3.2 45 0.0 0.0 1016.0 0.0 30.4 28.9 0.0
13/12/17 09:44 30.4 26 8.7 0.0 4.7 45 0.0 0.0 1016.0 0.0 30.4 28.9 0.0
13/12/17 09:43 30.3 28 9.8 0.0 4.7 45 0.0 0.0 1016.0 0.0 30.3 28.9 0.0
13/12/17 09:42 30.1 28 9.6 0.0 4.7 45 0.0 0.0 1016.0 0.0 30.1 28.7 0.0
13/12/17 09:41 29.9 28 9.4 0.0 4.7 46 0.0 0.0 1016.0 0.0 29.9 28.5 0.0
13/12/17 09:40 30.0 28 9.5 1.8 4.7 45 0.0 0.0 1016.0 1.8 29.9 28.6 0.0
13/12/17 09:39 29.8 29 9.9 0.0 4.7 45 0.0 0.0 1016.0 0.0 29.8 28.5 0.0
13/12/17 09:38 29.8 28 9.3 1.8 4.7 45 0.0 0.0 1017.0 0.0 29.8 28.4 0.0
13/12/17 09:37 29.9 29 9.9 1.4 4.7 45 0.0 0.0 1017.0 2.5 29.9 28.6 0.0
13/12/17 09:36 30.0 29 10.0 2.2 4.7 45 0.0 0.0 1017.0 3.2 30.0 28.7 0.0
13/12/17 09:35 30.0 29 10.0 2.2 4.7 45 0.0 0.0 1017.0 2.2 30.0 28.7 0.0
13/12/17 09:34 30.0 29 10.0 0.0 4.0 45 0.0 0.0 1017.0 0.0 30.0 28.7 0.0
13/12/17 09:33 29.8 29 9.9 1.4 4.0 45 0.0 0.0 1017.0 0.0 29.8 28.5 0.0
13/12/17 09:32 29.7 29 9.8 1.8 4.3 45 0.0 0.0 1017.0 1.8 29.7 28.4 0.0
13/12/17 09:31 29.8 30 10.4 0.0 4.3 45 0.0 0.0 1017.0 0.0 29.8 28.6 0.0
13/12/17 09:30 29.6 30 10.2 0.0 4.7 45 0.0 0.0 1017.0 0.0 29.6 28.4 0.0
13/12/17 09:29 29.4 29 9.5 0.0 4.7 46 0.0 0.0 1017.0 0.0 29.4 28.2 0.0
13/12/17 09:28 29.3 29 9.4 1.4 4.7 49 0.0 0.0 1017.0 0.0 29.3 28.1 0.0
13/12/17 09:27 29.1 30 9.8 0.0 4.7 49 0.0 0.0 1017.0 0.0 29.1 28.0 0.0
13/12/17 09:26 28.9 30 9.6 0.0 4.7 49 0.0 0.0 1017.0 1.4 28.9 27.8 0.0
13/12/17 09:25 28.6 30 9.3 1.8 4.7 53 0.0 0.0 1017.0 1.8 28.5 27.5 0.0
13/12/17 09:24 28.7 30 9.4 2.2 4.7 59 0.0 0.0 1017.0 4.0 28.7 27.6 0.0
13/12/17 09:23 28.8 30 9.5 2.5 4.7 65 0.0 0.0 1017.0 2.2 28.8 27.7 0.0
13/12/17 09:22 28.9 30 9.6 1.8 4.7 72 0.0 0.0 1017.0 4.3 28.9 27.8 0.0
13/12/17 09:21 29.0 30 9.7 3.2 4.7 79 0.0 0.0 1017.0 2.5 29.0 27.9 0.0
13/12/17 09:20 28.9 31 10.1 0.0 4.7 90 0.0 0.0 1017.0 0.0 28.9 27.8 0.0
13/12/17 09:19 28.9 31 10.1 0.0 4.7 90 0.0 0.0 1017.0 1.8 28.9 27.8 0.0
13/12/17 09:18 28.8 31 10.0 0.0 4.7 90 0.0 0.0 1017.0 0.0 28.6 27.8 0.0
13/12/17 09:17 28.3 31 9.6 0.0 4.7 90 0.0 0.0 1017.0 0.0 28.3 27.4 0.0
13/12/17 09:16 28.2 32 9.9 1.4 4.7 90 0.0 0.0 1017.0 0.0 28.2 27.3 0.0
13/12/17 09:15 28.3 31 9.6 1.8 4.7 90 0.0 0.0 1017.0 2.5 28.3 27.4 0.0
13/12/17 09:14 28.6 31 9.8 1.8 4.7 90 0.0 0.0 1017.0 2.2 28.6 27.6 0.0
13/12/17 09:13 28.7 32 10.4 2.2 4.7 90 0.0 0.0 1017.0 4.0 28.7 27.7 0.0
13/12/17 09:12 28.7 31 9.9 0.0 4.7 90 0.0 0.0 1017.0 0.0 28.7 27.7 0.0
13/12/17 09:11 28.6 32 10.3 2.5 4.7 90 0.0 0.0 1017.0 1.8 28.5 27.7 0.0
13/12/17 09:10 28.5 32 10.2 0.0 3.6 90 0.0 0.0 1017.0 1.8 28.1 27.6 0.0
13/12/17 09:09 28.1 32 9.9 0.0 3.6 90 0.0 0.0 1017.0 0.0 28.1 27.3 0.0
13/12/17 09:08 28.1 32 9.9 0.0 3.6 90 0.0 0.0 1016.0 0.0 28.1 27.3 0.0
13/12/17 09:07 28.1 32 9.9 0.0 3.6 90 0.0 0.0 1016.0 1.4 28.1 27.3 0.0
13/12/17 09:06 27.9 33 10.1 1.4 3.6 90 0.0 0.0 1016.0 1.8 27.9 27.2 0.0
13/12/17 09:05 27.7 33 10.0 2.2 3.6 90 0.0 0.0 1016.0 2.2 27.7 27.0 0.0
13/12/17 09:04 27.6 32 9.4 2.5 3.6 90 0.0 0.0 1016.0 3.6 27.6 26.9 0.0
13/12/17 09:03 27.4 32 9.2 0.0 2.5 90 0.0 0.0 1016.0 2.5 27.4 26.8 0.0
13/12/17 08:45 26.3 36 10.0 0.0 4.0 90 0.0 0.0 1017.0 0.0 26.3 26.3 0.0
13/12/17 08:44 26.3 37 10.4 0.0 4.0 90 0.0 0.0 1017.0 1.4 26.3 26.3 0.0
13/12/17 08:43 26.1 36 9.9 0.0 4.0 90 0.0 0.0 1017.0 1.8 26.1 26.1 0.0
13/12/17 08:42 26.0 36 9.8 0.0 4.0 90 0.0 0.0 1017.0 0.0 26.0 26.0 0.0
13/12/17 08:41 26.1 37 10.3 2.5 4.0 90 0.0 0.0 1017.0 0.0 26.1 26.1 0.0
13/12/17 08:40 26.2 37 10.4 2.5 4.0 90 0.0 0.0 1017.0 4.0 26.3 26.2 0.0
13/12/17 08:39 26.2 38 10.8 1.8 3.6 90 0.0 0.0 1017.0 2.2 26.2 26.2 0.0
13/12/17 08:38 26.2 38 10.8 2.2 3.6 90 0.0 0.0 1017.0 1.8 26.2 26.2 0.0
13/12/17 08:37 26.3 39 11.2 2.2 3.6 90 0.0 0.0 1017.0 3.6 26.3 26.3 0.0
13/12/17 08:36 26.2 41 11.9 2.2 3.6 90 0.0 0.0 1017.0 3.2 26.2 26.2 0.0
13/12/17 08:35 26.0 41 11.7 2.2 3.6 90 0.0 0.0 1017.0 3.6 26.0 26.0 0.0
13/12/17 08:34 25.9 42 12.0 0.0 1.8 90 0.0 0.0 1017.0 1.8 25.7 25.9 0.0
13/12/17 08:33 25.7 41 11.5 0.0 1.8 90 0.0 0.0 1017.0 0.0 25.5 25.7 0.0
13/12/17 08:32 25.5 42 11.6 0.0 2.5 90 0.0 0.0 1017.0 0.0 25.5 25.5 0.0
13/12/17 08:31 25.4 42 11.6 0.0 2.5 90 0.0 0.0 1017.0 0.0 25.5 25.4 0.0
13/12/17 08:30 25.5 44 12.3 0.0 2.5 90 0.0 0.0 1017.0 0.0 25.3 25.5 0.0
13/12/17 08:29 25.3 43 11.8 0.0 2.5 90 0.0 0.0 1017.0 0.0 25.2 25.3 0.0
13/12/17 08:28 25.2 41 11.0 0.0 2.5 90 0.0 0.0 1017.0 0.0 25.2 25.2 0.0
13/12/17 08:27 25.2 43 11.7 0.0 2.5 90 0.0 0.0 1017.0 0.0 25.2 25.2 0.0
13/12/17 08:26 25.2 46 12.8 0.0 2.5 90 0.0 0.0 1017.0 0.0 25.2 25.2 0.0
13/12/17 08:25 25.2 47 13.1 0.0 2.5 90 0.0 0.0 1017.0 0.0 25.2 25.2 0.0
13/12/17 08:24 25.2 47 13.1 0.0 2.5 90 0.0 0.0 1017.0 1.8 25.1 25.2 0.0
13/12/17 08:23 25.2 47 13.1 0.0 2.5 90 0.0 0.0 1017.0 1.8 25.2 25.2 0.0
13/12/17 08:22 25.2 48 13.4 0.0 2.5 90 0.0 0.0 1017.0 2.5 25.2 25.2 0.0
13/12/17 08:21 25.2 49 13.7 0.0 2.5 90 0.0 0.0 1017.0 2.5 25.1 25.2 0.0
13/12/17 08:20 25.1 50 13.9 0.0 2.5 90 0.0 0.0 1017.0 2.5 24.9 25.1 0.0
13/12/17 08:19 24.9 50 13.8 0.0 0.0 0 0.0 0.0 1017.0 0.0 24.7 24.9 0.0
13/12/17 08:18 24.7 50 13.6 0.0 0.0 0 0.0 0.0 1017.0 0.0 24.5 24.7 0.0
13/12/17 08:17 24.5 51 13.7 0.0 0.0 0 0.0 0.0 1017.0 0.0 24.4 24.5 0.0
13/12/17 08:16 24.4 52 13.9 0.0 0.0 0 0.0 0.0 1017.0 0.0 24.4 24.4 0.0
13/12/17 08:15 24.2 53 14.0 0.0 0.0 0 0.0 0.0 1017.0 0.0 24.1 24.2 0.0
13/12/17 08:14 24.1 54 14.2 0.0 0.0 0 0.0 0.0 1017.0 0.0 24.0 24.1 0.0
13/12/17 08:13 24.0 54 14.1 0.0 0.0 0 0.0 0.0 1017.0 0.0 24.0 24.0 0.0
13/12/17 08:12 24.0 54 14.1 0.0 0.0 0 0.0 0.0 1017.0 0.0 24.0 24.0 0.0
13/12/17 08:11 24.0 53 13.8 0.0 0.0 0 0.0 0.0 1017.0 0.0 24.0 24.0 0.0
13/12/17 08:10 24.0 54 14.1 0.0 0.0 0 0.0 0.0 1017.0 0.0 24.1 24.0 0.0
13/12/17 08:09 24.1 55 14.5 0.0 0.0 0 0.0 0.0 1017.0 0.0 24.1 24.1 0.0
13/12/17 08:08 24.0 57 15.0 0.0 0.0 0 0.0 0.0 1017.0 0.0 0.0 24.0 0.0
13/12/17 08:07 23.8 57 14.8 0.0 0.0 0 0.0 0.0 1017.0 0.0 0.0 23.8 0.0
13/12/17 08:06 23.5 58 14.8 0.0 0.0 0 0.0 0.0 1017.0 0.0 0.0 23.5 0.0
13/12/17 08:05 23.3 57 14.3 0.0 0.0 0 0.0 0.0 1017.0 0.0 0.0 23.3 0.0
13/12/17 08:04 23.1 57 14.1 0.0 0.0 0 0.0 0.0 1017.0 0.0 0.0 23.1 0.0
13/12/17 08:03 23.0 57 14.0 0.0 0.0 0 0.0 0.0 1017.0 0.0 0.0 23.0 0.0
13/12/17 08:00 22.4 58 13.7 0.0 0.0 0 0.0 0.0 1017.0 0.0 21.6 22.4 0.0
13/12/17 07:59 22.3 60 14.2 0.0 0.0 0 0.0 0.0 1017.0 0.0 21.6 22.3 0.0
13/12/17 07:58 22.2 60 14.1 0.0 0.0 0 0.0 0.0 1017.0 0.0 21.6 22.2 0.0
13/12/17 07:57 22.1 59 13.7 0.0 0.0 0 0.0 0.0 1017.0 0.0 21.6 22.1 0.0
13/12/17 07:56 22.2 59 13.8 0.0 0.0 0 0.0 0.0 1017.0 0.0 21.6 22.2 0.0
13/12/17 07:55 22.3 58 13.6 0.0 0.0 0 0.0 0.0 1017.0 0.0 21.6 22.3 0.0
13/12/17 07:54 22.2 58 13.5 0.0 0.0 0 0.0 0.0 1017.0 0.0 21.6 22.2 0.0
13/12/17 07:53 22.1 57 13.2 0.0 0.0 0 0.0 0.0 1016.0 0.0 21.6 22.1 0.0
13/12/17 07:52 22.0 57 13.1 0.0 0.0 0 0.0 0.0 1016.0 0.0 21.6 22.0 0.0
13/12/17 07:51 21.9 58 13.3 0.0 0.0 0 0.0 0.0 1016.0 0.0 21.6 21.9 0.0
13/12/17 07:50 21.9 58 13.3 0.0 0.0 0 0.0 0.0 1016.0 0.0 21.6 21.9 0.0
13/12/17 07:49 21.9 59 13.5 0.0 0.0 0 0.0 0.0 1016.0 0.0 21.6 21.9 0.0
13/12/17 07:48 21.8 59 13.4 0.0 0.0 0 0.0 0.0 1016.0 0.0 21.6 21.8 0.0
13/12/17 07:47 22.0 62 14.4 0.0 0.0 0 0.0 0.0 1016.0 0.0 21.6 22.0 0.0
13/12/17 07:46 22.0 64 14.9 0.0 0.0 0 0.0 0.0 1016.0 0.0 21.6 22.0 0.0
13/12/17 07:45 21.9 65 15.0 0.0 0.0 0 0.0 0.0 1016.0 0.0 21.6 21.9 0.0
13/12/17 07:44 21.7 64 14.6 0.0 0.0 0 0.0 0.0 1016.0 0.0 21.6 21.7 0.0
13/12/17 07:43 21.6 64 14.5 0.0 0.0 0 0.0 0.0 1016.0 0.0 21.4 21.6 0.0
13/12/17 07:42 21.4 65 14.5 0.0 0.0 0 0.0 0.0 1016.0 0.0 21.3 21.4 0.0
13/12/17 07:41 21.3 64 14.2 0.0 0.0 0 0.0 0.0 1016.0 0.0 21.1 21.3 0.0
13/12/17 07:40 21.1 63 13.8 0.0 0.0 0 0.0 0.0 1016.0 0.0 21.0 21.1 0.0
13/12/17 07:39 21.0 66 14.4 0.0 0.0 0 0.0 0.0 1016.0 0.0 21.1 21.0 0.0
13/12/17 07:38 21.0 66 14.4 0.0 0.0 0 0.0 0.0 1016.0 0.0 21.1 21.0 0.0
13/12/17 07:37 21.1 67 14.7 0.0 0.0 0 0.0 0.0 1016.0 0.0 21.0 21.1 0.0
13/12/17 07:36 21.0 66 14.4 0.0 0.0 0 0.0 0.0 1016.0 0.0 20.9 21.0 0.0
13/12/17 07:35 20.9 68 14.8 0.0 0.0 0 0.0 0.0 1016.0 0.0 20.9 20.9 0.0
13/12/17 07:34 20.9 68 14.8 0.0 0.0 0 0.0 0.0 1016.0 0.0 20.9 20.9 0.0
13/12/17 07:33 20.9 69 15.0 0.0 0.0 0 0.0 0.0 1016.0 0.0 20.8 20.9 0.0
13/12/17 07:32 20.8 69 14.9 0.0 0.0 0 0.0 0.0 1016.0 0.0 20.5 20.8 0.0
13/12/17 07:31 20.5 69 14.6 0.0 0.0 0 0.0 0.0 1016.0 0.0 20.5 20.5 0.0
13/12/17 07:30 20.5 71 15.1 0.0 0.0 0 0.0 0.0 1016.0 0.0 20.4 20.5 0.0
13/12/17 07:29 20.4 71 15.0 0.0 0.0 0 0.0 0.0 1016.0 0.0 20.4 20.4 0.0
13/12/17 07:28 20.2 70 14.6 0.0 0.0 0 0.0 0.0 1016.0 0.0 20.2 20.2 0.0
13/12/17 07:27 20.2 70 14.6 0.0 0.0 0 0.0 0.0 1016.0 0.0 20.2 20.2 0.0
13/12/17 07:26 20.2 69 14.3 0.0 0.0 0 0.0 0.0 1016.0 0.0 20.2 20.2 0.0
13/12/17 07:25 20.2 70 14.6 0.0 0.0 0 0.0 0.0 1016.0 0.0 20.1 20.2 0.0
13/12/17 07:24 20.1 72 14.9 0.0 0.0 0 0.0 0.0 1016.0 0.0 20.0 20.1 0.0
13/12/17 07:23 19.8 74 15.0 0.0 0.0 0 0.0 0.0 1017.0 0.0 19.6 19.8 0.0
13/12/17 07:22 19.6 74 14.8 0.0 0.0 0 0.0 0.0 1017.0 0.0 19.3 19.6 0.0
13/12/17 07:21 19.4 72 14.2 0.0 0.0 0 0.0 0.0 1017.0 0.0 19.3 19.4 0.0
13/12/17 07:20 19.3 73 14.3 0.0 0.0 0 0.0 0.0 1017.0 0.0 19.3 19.3 0.0
13/12/17 07:19 19.3 76 15.0 0.0 0.0 0 0.0 0.0 1017.0 0.0 19.2 19.3 0.0
13/12/17 07:18 19.2 77 15.1 0.0 0.0 0 0.0 0.0 1017.0 0.0 19.0 19.2 0.0
13/12/17 07:17 19.0 78 15.1 0.0 0.0 0 0.0 0.0 1017.0 0.0 18.8 19.0 0.0
13/12/17 07:16 18.8 78 14.9 0.0 0.0 0 0.0 0.0 1017.0 0.0 18.6 18.8 0.0
13/12/17 07:15 18.4 81 15.1 0.0 0.0 0 0.0 0.0 1017.0 0.0 18.2 18.4 0.0
13/12/17 07:14 18.2 80 14.7 0.0 0.0 0 0.0 0.0 1017.0 0.0 17.9 18.2 0.0
13/12/17 07:13 17.9 80 14.4 0.0 0.0 0 0.0 0.0 1017.0 0.0 17.8 17.9 0.0
13/12/17 07:12 17.8 81 14.5 0.0 0.0 0 0.0 0.0 1017.0 0.0 17.7 17.8 0.0
13/12/17 07:11 17.7 82 14.6 0.0 0.0 0 0.0 0.0 1017.0 0.0 17.5 17.7 0.0
13/12/17 07:10 17.5 83 14.6 0.0 0.0 0 0.0 0.0 1017.0 0.0 17.4 17.5 0.0
13/12/17 07:09 17.4 83 14.5 0.0 0.0 0 0.0 0.0 1017.0 0.0 17.2 17.4 0.0
13/12/17 07:08 17.0 85 14.5 0.0 0.0 0 0.0 0.0 1017.0 0.0 16.8 17.0 0.0
13/12/17 07:07 16.8 86 14.4 0.0 0.0 0 0.0 0.0 1017.0 0.0 16.5 16.8 0.0
13/12/17 07:06 16.5 87 14.3 0.0 0.0 0 0.0 0.0 1017.0 0.0 16.3 16.5 0.0
13/12/17 07:05 16.3 87 14.1 0.0 0.0 0 0.0 0.0 1017.0 0.0 16.3 16.3 0.0
13/12/17 07:04 16.0 88 14.0 0.0 0.0 0 0.0 0.0 1017.0 0.0 15.8 16.0 0.0
13/12/17 07:03 15.8 89 14.0 0.0 0.0 0 0.0 0.0 1017.0 0.0 15.4 15.8 0.0
13/12/17 06:18 11.9 90 10.3 0.0 0.0 0 0.0 0.0 1017.0 0.0 0.0 11.9 0.0
13/12/17 06:17 11.9 90 10.3 0.0 0.0 0 0.0 0.0 1017.0 0.0 0.0 11.9 0.0
13/12/17 06:16 11.9 90 10.3 0.0 0.0 0 0.0 0.0 1017.0 0.0 0.0 11.9 0.0
13/12/17 06:15 12.0 89 10.2 0.0 0.0 0 0.0 0.0 1017.0 0.0 0.0 12.0 0.0
13/12/17 06:14 11.9 89 10.1 0.0 0.0 0 0.0 0.0 1017.0 0.0 0.0 11.9 0.0
13/12/17 06:13 11.9 89 10.1 0.0 0.0 0 0.0 0.0 1017.0 0.0 0.0 11.9 0.0
13/12/17 06:12 11.9 89 10.1 0.0 0.0 0 0.0 0.0 1017.0 0.0 0.0 11.9 0.0
13/12/17 06:11 11.8 88 9.9 0.0 0.0 0 0.0 0.0 1017.0 0.0 0.0 11.8 0.0
13/12/17 06:10 11.8 88 9.9 0.0 0.0 0 0.0 0.0 1017.0 0.0 0.0 11.8 0.0
13/12/17 06:09 11.8 88 9.9 0.0 0.0 0 0.0 0.0 1017.0 0.0 0.0 11.8 0.0
13/12/17 06:08 11.8 87 9.7 0.0 0.0 0 0.0 0.0 1017.0 0.0 0.0 11.8 0.0
13/12/17 06:07 11.7 87 9.6 0.0 0.0 0 0.0 0.0 1017.0 0.0 0.0 11.7 0.0
13/12/17 06:06 11.7 86 9.4 0.0 0.0 0 0.0 0.0 1017.0 0.0 0.0 11.7 0.0
13/12/17 06:05 11.7 86 9.4 0.0 0.0 0 0.0 0.0 1017.0 0.0 0.0 11.7 0.0
13/12/17 06:04 11.7 86 9.4 0.0 0.0 0 0.0 0.0 1017.0 0.0 0.0 11.7 0.0
13/12/17 06:03 11.8 86 9.5 0.0 0.0 0 0.0 0.0 1017.0 0.0 0.0 11.8 0.0
13/12/17 05:59 11.8 85 9.4 0.0 0.0 0 0.0 0.0 1017.0 0.0 0.0 11.8 0.0
13/12/17 05:58 11.9 85 9.5 0.0 0.0 0 0.0 0.0 1017.0 0.0 0.0 11.9 0.0
13/12/17 05:57 11.9 85 9.5 0.0 0.0 0 0.0 0.0 1017.0 0.0 0.0 11.9 0.0
13/12/17 05:56 11.9 85 9.5 0.0 0.0 0 0.0 0.0 1017.0 0.0 0.0 11.9 0.0
13/12/17 05:55 11.9 85 9.5 0.0 0.0 0 0.0 0.0 1017.0 0.0 0.0 11.9 0.0
13/12/17 05:54 11.9 85 9.5 0.0 0.0 0 0.0 0.0 1017.0 0.0 0.0 11.9 0.0
13/12/17 05:53 11.9 85 9.5 0.0 0.0 0 0.0 0.0 1017.0 0.0 0.0 11.9 0.0
13/12/17 05:52 11.9 84 9.3 0.0 0.0 0 0.0 0.0 1017.0 0.0 0.0 11.9 0.0
13/12/17 05:51 11.9 84 9.3 0.0 0.0 0 0.0 0.0 1017.0 0.0 0.0 11.9 0.0
13/12/17 05:50 11.9 84 9.3 0.0 0.0 0 0.0 0.0 1017.0 0.0 0.0 11.9 0.0
13/12/17 05:49 12.0 84 9.4 0.0 0.0 0 0.0 0.0 1017.0 0.0 0.0 12.0 0.0
13/12/17 05:48 12.0 84 9.4 0.0 0.0 0 0.0 0.0 1017.0 0.0 0.0 12.0 0.0
13/12/17 05:47 12.0 84 9.4 0.0 0.0 0 0.0 0.0 1017.0 0.0 0.0 12.0 0.0
13/12/17 05:46 12.0 84 9.4 0.0 0.0 0 0.0 0.0 1017.0 0.0 0.0 12.0 0.0
13/12/17 05:45 11.9 84 9.3 0.0 0.0 0 0.0 0.0 1017.0 0.0 0.0 11.9 0.0
13/12/17 05:44 11.9 84 9.3 0.0 0.0 0 0.0 0.0 1017.0 0.0 0.0 11.9 0.0
13/12/17 05:43 11.9 84 9.3 0.0 0.0 0 0.0 0.0 1017.0 0.0 0.0 11.9 0.0
13/12/17 05:42 11.9 84 9.3 0.0 0.0 0 0.0 0.0 1017.0 0.0 0.0 11.9 0.0
13/12/17 05:41 11.9 84 9.3 0.0 0.0 0 0.0 0.0 1017.0 0.0 0.0 11.9 0.0
13/12/17 05:40 11.9 84 9.3 0.0 0.0 0 0.0 0.0 1017.0 0.0 0.0 11.9 0.0
13/12/17 05:39 11.9 84 9.3 0.0 0.0 0 0.0 0.0 1017.0 0.0 0.0 11.9 0.0
13/12/17 05:38 12.0 84 9.4 0.0 0.0 0 0.0 0.0 1016.0 0.0 0.0 12.0 0.0
13/12/17 05:37 12.0 84 9.4 0.0 0.0 0 0.0 0.0 1016.0 0.0 0.0 12.0 0.0
13/12/17 05:36 12.0 84 9.4 0.0 0.0 0 0.0 0.0 1016.0 0.0 0.0 12.0 0.0
13/12/17 05:35 12.0 84 9.4 0.0 0.0 0 0.0 0.0 1016.0 0.0 0.0 12.0 0.0
13/12/17 05:34 12.0 84 9.4 0.0 0.0 0 0.0 0.0 1016.0 0.0 0.0 12.0 0.0
13/12/17 05:33 12.1 84 9.5 0.0 0.0 0 0.0 0.0 1016.0 0.0 0.0 12.1 0.0
13/12/17 05:32 12.1 84 9.5 0.0 0.0 0 0.0 0.0 1016.0 0.0 0.0 12.1 0.0
13/12/17 05:31 12.1 84 9.5 0.0 0.0 0 0.0 0.0 1016.0 0.0 0.0 12.1 0.0
13/12/17 05:30 12.2 84 9.6 0.0 0.0 0 0.0 0.0 1016.0 0.0 0.0 12.2 0.0
13/12/17 05:29 12.2 84 9.6 0.0 0.0 0 0.0 0.0 1016.0 0.0 0.0 12.2 0.0
13/12/17 05:28 12.2 84 9.6 0.0 0.0 0 0.0 0.0 1016.0 0.0 0.0 12.2 0.0
13/12/17 05:27 12.2 84 9.6 0.0 0.0 0 0.0 0.0 1016.0 0.0 0.0 12.2 0.0
13/12/17 05:26 12.3 84 9.7 0.0 0.0 0 0.0 0.0 1016.0 0.0 0.0 12.3 0.0
13/12/17 05:25 12.3 84 9.7 0.0 0.0 0 0.0 0.0 1016.0 0.0 0.0 12.3 0.0
13/12/17 05:24 12.3 84 9.7 0.0 0.0 0 0.0 0.0 1016.0 0.0 0.0 12.3 0.0
13/12/17 05:23 12.3 84 9.7 0.0 0.0 0 0.0 0.0 1016.0 0.0 0.0 12.3 0.0
13/12/17 05:22 12.3 84 9.7 0.0 0.0 0 0.0 0.0 1016.0 0.0 0.0 12.3 0.0
13/12/17 05:21 12.3 84 9.7 0.0 0.0 0 0.0 0.0 1016.0 0.0 0.0 12.3 0.0
13/12/17 05:20 12.4 84 9.8 0.0 0.0 0 0.0 0.0 1016.0 0.0 0.0 12.4 0.0
13/12/17 05:19 12.4 84 9.8 0.0 0.0 0 0.0 0.0 1016.0 0.0 0.0 12.4 0.0
13/12/17 05:18 12.4 84 9.8 0.0 0.0 0 0.0 0.0 1016.0 0.0 0.0 12.4 0.0
13/12/17 05:17 12.4 84 9.8 0.0 0.0 0 0.0 0.0 1016.0 0.0 0.0 12.4 0.0
13/12/17 05:16 12.5 84 9.9 0.0 0.0 0 0.0 0.0 1016.0 0.0 0.0 12.5 0.0
13/12/17 05:15 12.5 84 9.9 0.0 0.0 0 0.0 0.0 1016.0 0.0 0.0 12.5 0.0
13/12/17 05:14 12.5 84 9.9 0.0 0.0 0 0.0 0.0 1016.0 0.0 0.0 12.5 0.0
13/12/17 05:13 12.5 84 9.9 0.0 0.0 0 0.0 0.0 1016.0 0.0 0.0 12.5 0.0
13/12/17 05:12 12.5 84 9.9 0.0 0.0 0 0.0 0.0 1016.0 0.0 0.0 12.5 0.0
13/12/17 05:11 12.5 84 9.9 0.0 0.0 0 0.0 0.0 1016.0 0.0 0.0 12.5 0.0
13/12/17 05:10 12.5 84 9.9 0.0 0.0 0 0.0 0.0 1016.0 0.0 0.0 12.5 0.0
13/12/17 05:09 12.6 84 10.0 0.0 0.0 0 0.0 0.0 1016.0 0.0 0.0 12.6 0.0
13/12/17 05:08 12.6 84 10.0 0.0 0.0 0 0.0 0.0 1016.0 0.0 0.0 12.6 0.0
13/12/17 05:07 12.6 84 10.0 0.0 0.0 0 0.0 0.0 1016.0 0.0 0.0 12.6 0.0
13/12/17 05:06 12.6 84 10.0 0.0 0.0 0 0.0 0.0 1016.0 0.0 0.0 12.6 0.0
13/12/17 05:05 12.6 84 10.0 0.0 0.0 0 0.0 0.0 1016.0 0.0 0.0 12.6 0.0
13/12/17 05:04 12.7 84 10.1 0.0 0.0 0 0.0 0.0 1016.0 0.0 0.0 12.7 0.0
13/12/17 05:03 12.7 84 10.1 0.0 0.0 0 0.0 0.0 1016.0 0.0 0.0 12.7 0.0
13/12/17 04:11 13.9 84 11.2 0.0 0.0 0 0.0 0.0 1016.0 0.0 0.0 13.9 0.0
13/12/17 04:10 14.0 83 11.2 0.0 0.0 0 0.0 0.0 1016.0 0.0 0.0 14.0 0.0
13/12/17 04:09 14.0 83 11.2 0.0 0.0 0 0.0 0.0 1016.0 0.0 0.0 14.0 0.0
13/12/17 04:08 14.0 83 11.2 0.0 0.0 0 0.0 0.0 1016.0 0.0 0.0 14.0 0.0
13/12/17 04:07 14.0 83 11.2 0.0 0.0 0 0.0 0.0 1016.0 0.0 0.0 14.0 0.0
13/12/17 04:06 14.1 83 11.3 0.0 0.0 0 0.0 0.0 1016.0 0.0 0.0 14.1 0.0
13/12/17 04:05 14.1 83 11.3 0.0 0.0 0 0.0 0.0 1016.0 0.0 0.0 14.1 0.0
13/12/17 04:04 14.1 83 11.3 0.0 0.0 0 0.0 0.0 1016.0 0.0 0.0 14.1 0.0
13/12/17 04:03 14.2 83 11.4 0.0 0.0 0 0.0 0.0 1016.0 0.0 0.0 14.2 0.0
13/12/17 03:11 14.2 93 13.1 0.0 0.0 0 0.0 0.0 1016.0 0.0 0.0 14.2 0.0
13/12/17 03:10 14.2 93 13.1 0.0 0.0 0 0.0 0.0 1016.0 0.0 0.0 14.2 0.0
13/12/17 03:09 14.2 94 13.2 0.0 0.0 0 0.0 0.0 1016.0 0.0 0.0 14.2 0.0
13/12/17 03:08 14.2 94 13.2 0.0 0.0 0 0.0 0.0 1016.0 0.0 0.0 14.2 0.0
13/12/17 03:07 14.2 94 13.2 0.0 0.0 0 0.0 0.0 1016.0 0.0 0.0 14.2 0.0
13/12/17 03:06 14.2 94 13.2 0.0 0.0 0 0.0 0.0 1016.0 0.0 0.0 14.2 0.0
13/12/17 03:05 14.2 94 13.2 0.0 0.0 0 0.0 0.0 1016.0 0.0 0.0 14.2 0.0
13/12/17 03:04 14.2 94 13.2 0.0 0.0 0 0.0 0.0 1016.0 0.0 0.0 14.2 0.0
13/12/17 03:03 14.2 94 13.2 0.0 0.0 0 0.0 0.0 1016.0 0.0 0.0 14.2 0.0
13/12/17 02:59 14.2 94 13.2 0.0 0.0 0 0.0 0.0 1016.0 0.0 0.0 14.2 0.0
13/12/17 02:58 14.2 94 13.2 0.0 0.0 0 0.0 0.0 1016.0 0.0 0.0 14.2 0.0
13/12/17 02:57 14.3 94 13.3 0.0 0.0 0 0.0 0.0 1016.0 0.0 0.0 14.3 0.0
13/12/17 02:56 14.3 94 13.3 0.0 0.0 0 0.0 0.0 1016.0 0.0 0.0 14.3 0.0
13/12/17 02:55 14.2 94 13.2 0.0 0.0 0 0.0 0.0 1016.0 0.0 0.0 14.2 0.0
13/12/17 02:54 14.3 94 13.3 0.0 0.0 0 0.0 0.0 1016.0 0.0 0.0 14.3 0.0
13/12/17 02:53 14.3 94 13.3 0.0 0.0 0 0.0 0.0 1017.0 0.0 0.0 14.3 0.0
13/12/17 02:52 14.3 94 13.3 0.0 0.0 0 0.0 0.0 1017.0 0.0 0.0 14.3 0.0
13/12/17 02:51 14.3 94 13.3 0.0 0.0 0 0.0 0.0 1017.0 0.0 0.0 14.3 0.0
13/12/17 02:50 14.4 94 13.4 0.0 0.0 0 0.0 0.0 1017.0 0.0 0.0 14.4 0.0
13/12/17 02:49 14.4 94 13.4 0.0 0.0 0 0.0 0.0 1017.0 0.0 0.0 14.4 0.0
13/12/17 02:48 14.4 94 13.4 0.0 0.0 0 0.0 0.0 1017.0 0.0 0.0 14.4 0.0
13/12/17 02:47 14.4 94 13.4 0.0 0.0 0 0.0 0.0 1017.0 0.0 0.0 14.4 0.0
13/12/17 02:46 14.4 94 13.4 0.0 0.0 0 0.0 0.0 1017.0 0.0 0.0 14.4 0.0
13/12/17 02:45 14.4 94 13.4 0.0 0.0 0 0.0 0.0 1017.0 0.0 0.0 14.4 0.0
13/12/17 02:44 14.4 94 13.4 0.0 0.0 0 0.0 0.0 1017.0 0.0 0.0 14.4 0.0
13/12/17 02:43 14.4 94 13.4 0.0 0.0 0 0.0 0.0 1017.0 0.0 0.0 14.4 0.0
13/12/17 02:42 14.4 94 13.4 0.0 0.0 0 0.0 0.0 1017.0 0.0 0.0 14.4 0.0
13/12/17 02:41 14.4 94 13.4 0.0 0.0 0 0.0 0.0 1017.0 0.0 0.0 14.4 0.0
13/12/17 02:40 14.4 94 13.4 0.0 0.0 0 0.0 0.0 1017.0 0.0 0.0 14.4 0.0
13/12/17 02:39 14.4 94 13.4 0.0 0.0 0 0.0 0.0 1017.0 0.0 0.0 14.4 0.0
13/12/17 02:38 14.4 94 13.4 0.0 0.0 0 0.0 0.0 1017.0 0.0 0.0 14.4 0.0
13/12/17 02:37 14.4 94 13.4 0.0 0.0 0 0.0 0.0 1017.0 0.0 0.0 14.4 0.0
13/12/17 02:36 14.4 94 13.4 0.0 0.0 0 0.0 0.0 1017.0 0.0 0.0 14.4 0.0
13/12/17 02:35 14.4 94 13.4 0.0 0.0 0 0.0 0.0 1017.0 0.0 0.0 14.4 0.0
13/12/17 02:34 14.4 94 13.4 0.0 0.0 0 0.0 0.0 1017.0 0.0 0.0 14.4 0.0
13/12/17 02:33 14.5 94 13.5 0.0 0.0 0 0.0 0.0 1017.0 0.0 0.0 14.5 0.0
13/12/17 02:32 14.5 94 13.5 0.0 0.0 0 0.0 0.0 1017.0 0.0 0.0 14.5 0.0
13/12/17 02:31 14.5 94 13.5 0.0 0.0 0 0.0 0.0 1017.0 0.0 0.0 14.5 0.0
13/12/17 02:30 14.5 94 13.5 0.0 0.0 0 0.0 0.0 1017.0 0.0 0.0 14.5 0.0
13/12/17 02:29 14.5 94 13.5 0.0 0.0 0 0.0 0.0 1017.0 0.0 0.0 14.5 0.0
13/12/17 02:28 14.5 94 13.5 0.0 0.0 0 0.0 0.0 1017.0 0.0 0.0 14.5 0.0
13/12/17 02:27 14.6 94 13.6 0.0 0.0 0 0.0 0.0 1017.0 0.0 0.0 14.6 0.0
13/12/17 02:26 14.6 94 13.6 0.0 0.0 0 0.0 0.0 1017.0 0.0 0.0 14.6 0.0
13/12/17 02:25 14.6 94 13.6 0.0 0.0 0 0.0 0.0 1017.0 0.0 0.0 14.6 0.0
13/12/17 02:24 14.6 94 13.6 0.0 0.0 0 0.0 0.0 1017.0 0.0 0.0 14.6 0.0
13/12/17 02:23 14.6 94 13.6 0.0 0.0 0 0.0 0.0 1018.0 0.0 0.0 14.6 0.0
13/12/17 02:22 14.6 94 13.6 0.0 0.0 0 0.0 0.0 1018.0 0.0 0.0 14.6 0.0
13/12/17 02:21 14.6 94 13.6 0.0 0.0 0 0.0 0.0 1018.0 0.0 0.0 14.6 0.0
13/12/17 02:20 14.7 94 13.7 0.0 0.0 0 0.0 0.0 1018.0 0.0 0.0 14.7 0.0
13/12/17 02:19 14.7 93 13.6 0.0 0.0 0 0.0 0.0 1018.0 0.0 0.0 14.7 0.0
13/12/17 02:18 14.7 94 13.7 0.0 0.0 0 0.0 0.0 1018.0 0.0 0.0 14.7 0.0
13/12/17 02:17 14.7 94 13.7 0.0 0.0 0 0.0 0.0 1018.0 0.0 0.0 14.7 0.0
13/12/17 02:16 14.7 93 13.6 0.0 0.0 0 0.0 0.0 1018.0 0.0 0.0 14.7 0.0
13/12/17 02:15 14.7 93 13.6 0.0 0.0 0 0.0 0.0 1018.0 0.0 0.0 14.7 0.0
13/12/17 02:14 14.7 93 13.6 0.0 0.0 0 0.0 0.0 1018.0 0.0 0.0 14.7 0.0
13/12/17 02:13 14.7 93 13.6 0.0 0.0 0 0.0 0.0 1018.0 0.0 0.0 14.7 0.0
13/12/17 02:12 14.8 93 13.7 0.0 0.0 0 0.0 0.0 1018.0 0.0 0.0 14.8 0.0
13/12/17 02:11 14.7 93 13.6 0.0 0.0 0 0.0 0.0 1018.0 0.0 0.0 14.7 0.0
13/12/17 02:10 14.7 93 13.6 0.0 0.0 0 0.0 0.0 1018.0 0.0 0.0 14.7 0.0
13/12/17 02:09 14.7 93 13.6 0.0 0.0 0 0.0 0.0 1018.0 0.0 0.0 14.7 0.0
13/12/17 02:08 14.7 93 13.6 0.0 0.0 0 0.0 0.0 1016.0 0.0 0.0 14.7 0.0
13/12/17 02:07 14.7 93 13.6 0.0 0.0 0 0.0 0.0 1016.0 0.0 0.0 14.7 0.0
13/12/17 02:06 14.7 93 13.6 0.0 0.0 0 0.0 0.0 1016.0 0.0 0.0 14.7 0.0
13/12/17 02:05 14.7 93 13.6 0.0 0.0 0 0.0 0.0 1016.0 0.0 0.0 14.7 0.0
13/12/17 02:04 14.8 93 13.7 0.0 0.0 0 0.0 0.0 1016.0 0.0 0.0 14.8 0.0
13/12/17 02:03 14.7 93 13.6 0.0 0.0 0 0.0 0.0 1016.0 0.0 0.0 14.7 0.0
13/12/17 02:00 14.7 93 13.6 0.0 0.0 0 0.0 0.0 1016.0 0.0 0.0 14.7 0.0
13/12/17 01:59 14.7 93 13.6 0.0 0.0 0 0.0 0.0 1016.0 0.0 0.0 14.7 0.0
13/12/17 01:58 14.8 93 13.7 0.0 0.0 0 0.0 0.0 1016.0 0.0 0.0 14.8 0.0
13/12/17 01:57 14.8 93 13.7 0.0 0.0 0 0.0 0.0 1016.0 0.0 0.0 14.8 0.0
13/12/17 01:56 14.8 93 13.7 0.0 0.0 0 0.0 0.0 1016.0 0.0 0.0 14.8 0.0
13/12/17 01:55 14.8 93 13.7 0.0 0.0 0 0.0 0.0 1016.0 0.0 0.0 14.8 0.0
13/12/17 01:54 14.8 93 13.7 0.0 0.0 0 0.0 0.0 1016.0 0.0 0.0 14.8 0.0
13/12/17 01:53 14.9 93 13.8 0.0 0.0 0 0.0 0.0 1016.0 0.0 0.0 14.9 0.0
13/12/17 01:52 14.9 93 13.8 0.0 0.0 0 0.0 0.0 1016.0 0.0 0.0 14.9 0.0
13/12/17 01:51 14.9 93 13.8 0.0 0.0 0 0.0 0.0 1016.0 0.0 0.0 14.9 0.0
13/12/17 01:50 14.9 93 13.8 0.0 0.0 0 0.0 0.0 1016.0 0.0 0.0 14.9 0.0
13/12/17 01:49 14.9 93 13.8 0.0 0.0 0 0.0 0.0 1016.0 0.0 0.0 14.9 0.0
13/12/17 01:48 14.9 93 13.8 0.0 0.0 0 0.0 0.0 1016.0 0.0 0.0 14.9 0.0
13/12/17 01:47 14.9 93 13.8 0.0 0.0 0 0.0 0.0 1016.0 0.0 0.0 14.9 0.0
13/12/17 01:46 14.9 93 13.8 0.0 0.0 0 0.0 0.0 1016.0 0.0 0.0 14.9 0.0
13/12/17 01:45 14.9 93 13.8 0.0 0.0 0 0.0 0.0 1016.0 0.0 0.0 14.9 0.0
13/12/17 01:44 14.9 93 13.8 0.0 0.0 0 0.0 0.0 1016.0 0.0 0.0 14.9 0.0
13/12/17 01:43 15.0 92 13.7 0.0 0.0 0 0.0 0.0 1016.0 0.0 0.0 15.0 0.0
13/12/17 01:42 15.0 93 13.9 0.0 0.0 0 0.0 0.0 1016.0 0.0 0.0 15.0 0.0
13/12/17 01:41 15.0 93 13.9 0.0 0.0 0 0.0 0.0 1016.0 0.0 0.0 15.0 0.0
13/12/17 01:40 15.0 93 13.9 0.0 0.0 0 0.0 0.0 1016.0 0.0 0.0 15.0 0.0
13/12/17 01:39 15.0 93 13.9 0.0 0.0 0 0.0 0.0 1016.0 0.0 0.0 15.0 0.0
13/12/17 01:38 15.0 93 13.9 0.0 0.0 0 0.0 0.0 1017.0 0.0 0.0 15.0 0.0
13/12/17 01:37 15.1 93 14.0 0.0 0.0 0 0.0 0.0 1017.0 0.0 0.0 15.1 0.0
13/12/17 01:36 15.1 93 14.0 0.0 0.0 0 0.0 0.0 1017.0 0.0 0.0 15.1 0.0
13/12/17 01:35 15.0 93 13.9 0.0 0.0 0 0.0 0.0 1017.0 0.0 0.0 15.0 0.0
13/12/17 01:34 15.1 93 14.0 0.0 0.0 0 0.0 0.0 1017.0 0.0 0.0 15.1 0.0
13/12/17 01:33 15.1 93 14.0 0.0 0.0 0 0.0 0.0 1017.0 0.0 0.0 15.1 0.0
13/12/17 01:32 15.1 93 14.0 0.0 0.0 0 0.0 0.0 1017.0 0.0 0.0 15.1 0.0
13/12/17 01:31 15.1 92 13.8 0.0 0.0 0 0.0 0.0 1017.0 0.0 0.0 15.1 0.0
13/12/17 01:30 15.1 92 13.8 0.0 0.0 0 0.0 0.0 1017.0 0.0 0.0 15.1 0.0
13/12/17 01:29 15.1 92 13.8 0.0 0.0 0 0.0 0.0 1017.0 0.0 0.0 15.1 0.0
13/12/17 01:28 15.1 92 13.8 0.0 0.0 0 0.0 0.0 1017.0 0.0 0.0 15.1 0.0
13/12/17 01:27 15.0 92 13.7 0.0 0.0 0 0.0 0.0 1017.0 0.0 0.0 15.0 0.0
13/12/17 01:26 15.0 92 13.7 0.0 0.0 0 0.0 0.0 1017.0 0.0 0.0 15.0 0.0
13/12/17 01:25 15.0 92 13.7 0.0 0.0 0 0.0 0.0 1017.0 0.0 0.0 15.0 0.0
13/12/17 01:24 15.1 92 13.8 0.0 0.0 0 0.0 0.0 1017.0 0.0 0.0 15.1 0.0
13/12/17 01:23 15.1 92 13.8 0.0 0.0 0 0.0 0.0 1017.0 0.0 0.0 15.1 0.0
13/12/17 01:22 15.1 92 13.8 0.0 0.0 0 0.0 0.0 1017.0 0.0 0.0 15.1 0.0
13/12/17 01:21 15.1 92 13.8 0.0 0.0 0 0.0 0.0 1017.0 0.0 0.0 15.1 0.0
13/12/17 01:20 15.1 92 13.8 0.0 0.0 0 0.0 0.0 1017.0 0.0 0.0 15.1 0.0
13/12/17 01:19 15.1 92 13.8 0.0 0.0 0 0.0 0.0 1017.0 0.0 0.0 15.1 0.0
13/12/17 01:18 15.1 92 13.8 0.0 0.0 0 0.0 0.0 1017.0 0.0 0.0 15.1 0.0
13/12/17 01:17 15.1 92 13.8 0.0 0.0 0 0.0 0.0 1017.0 0.0 0.0 15.1 0.0
13/12/17 01:16 15.1 92 13.8 0.0 0.0 0 0.0 0.0 1017.0 0.0 0.0 15.1 0.0
13/12/17 01:15 15.1 92 13.8 0.0 0.0 0 0.0 0.0 1017.0 0.0 0.0 15.1 0.0
13/12/17 01:14 15.1 91 13.6 0.0 0.0 0 0.0 0.0 1017.0 0.0 0.0 15.1 0.0
13/12/17 01:13 15.1 91 13.6 0.0 0.0 0 0.0 0.0 1017.0 0.0 0.0 15.1 0.0
13/12/17 01:12 15.1 92 13.8 0.0 0.0 0 0.0 0.0 1017.0 0.0 0.0 15.1 0.0
13/12/17 01:11 15.1 92 13.8 0.0 0.0 0 0.0 0.0 1017.0 0.0 0.0 15.1 0.0
13/12/17 01:10 15.1 92 13.8 0.0 0.0 0 0.0 0.0 1017.0 0.0 0.0 15.1 0.0
13/12/17 01:09 15.1 91 13.6 0.0 0.0 0 0.0 0.0 1017.0 0.0 0.0 15.1 0.0
13/12/17 01:08 15.2 91 13.7 0.0 0.0 0 0.0 0.0 1017.0 0.0 0.0 15.2 0.0
13/12/17 01:07 15.1 91 13.6 0.0 0.0 0 0.0 0.0 1017.0 0.0 0.0 15.1 0.0
13/12/17 01:06 15.1 91 13.6 0.0 0.0 0 0.0 0.0 1017.0 0.0 0.0 15.1 0.0
13/12/17 01:05 15.1 91 13.6 0.0 0.0 0 0.0 0.0 1017.0 0.0 0.0 15.1 0.0
13/12/17 01:04 15.2 91 13.7 0.0 0.0 0 0.0 0.0 1017.0 0.0 0.0 15.2 0.0
13/12/17 01:03 15.2 91 13.7 0.0 0.0 0 0.0 0.0 1017.0 0.0 0.0 15.2 0.0
13/12/17 00:10 15.8 88 13.8 0.0 0.0 0 0.0 0.0 1018.0 0.0 0.0 15.8 0.0
13/12/17 00:09 15.8 88 13.8 0.0 0.0 0 0.0 0.0 1018.0 0.0 0.0 15.8 0.0
13/12/17 00:08 15.8 88 13.8 0.0 0.0 0 0.0 0.0 1018.0 0.0 0.0 15.8 0.0
13/12/17 00:07 15.8 88 13.8 0.0 0.0 0 0.0 0.0 1018.0 0.0 0.0 15.8 0.0
13/12/17 00:06 15.8 88 13.8 0.0 0.0 0 0.0 0.0 1018.0 0.0 0.0 15.8 0.0
13/12/17 00:05 15.9 88 13.9 0.0 0.0 0 0.0 0.0 1018.0 0.0 0.0 15.9 0.0
13/12/17 00:04 15.9 88 13.9 0.0 0.0 0 0.0 0.0 1018.0 0.0 0.0 15.9 0.0
13/12/17 00:03 15.9 88 13.9 0.0 0.0 0 0.0 0.0 1018.0 0.0 0.0 15.9 0.0
  Back to Top


This site is NOT a professional weather site.
Never base important decisions on this or any weather information obtained from the Internet.
Website Supported by Cumulus. Contact me Admin